Time;durP1;ratioP1;P1;durP2;ratioP2;P2;SDS_P1;SDS_P2;PMS_P1;PMS_P2;Temp;Humidity;BMP_temperature;BMP_pressure;BME280_temperature;BME280_humidity;BME280_pressure;Samples;Min_cycle;Max_cycle;Signal;HPM_P1;HPM_P2
2022/09/13 00:01:47;;;;;;;24.90;17.05;;;18.10;99.90;;;;;;5116239;28;20040;-85
2022/09/13 00:04:13;;;;;;;23.65;16.92;;;18.00;99.90;;;;;;5115814;28;20089;-85
2022/09/13 00:06:38;;;;;;;22.75;16.80;;;17.90;99.90;;;;;;5080737;28;20047;-84
2022/09/13 00:09:04;;;;;;;25.70;17.20;;;;;;;;;;5097435;28;20050;-81
2022/09/13 00:11:31;;;;;;;24.98;16.75;;;;;;;;;;5080411;28;20047;-80
2022/09/13 00:13:57;;;;;;;21.38;16.77;;;;;;;;;;5097192;28;20060;-81
2022/09/13 00:16:25;;;;;;;20.20;16.33;;;18.00;99.90;;;;;;5097240;28;20047;-86
2022/09/13 00:18:52;;;;;;;22.45;16.90;;;17.90;99.90;;;;;;5097313;28;20130;-86
2022/09/13 00:21:20;;;;;;;24.88;16.77;;;18.00;99.90;;;;;;5080338;28;20042;-86
2022/09/13 00:23:48;;;;;;;20.75;16.83;;;17.90;99.90;;;;;;5080355;28;20061;-85
2022/09/13 00:26:19;;;;;;;23.30;16.02;;;18.10;99.90;;;;;;5097139;28;20048;-84
2022/09/13 00:28:45;;;;;;;21.98;16.95;;;;;;;;;;5097078;28;20629;-83
2022/09/13 00:31:11;;;;;;;24.10;17.10;;;;;;;;;;5097184;28;20074;-83
2022/09/13 00:33:37;;;;;;;24.45;15.05;;;;;;;;;;5096833;28;20046;-81
2022/09/13 00:36:08;;;;;;;20.20;15.10;;;17.90;99.90;;;;;;5096889;28;20047;-84
2022/09/13 00:38:35;;;;;;;18.70;13.32;;;;;;;;;;5079956;28;20066;-82
2022/09/13 00:41:01;;;;;;;21.85;13.05;;;;;;;;;;5096368;28;20181;-84
2022/09/13 00:43:47;;;;;;;16.25;12.90;;;17.80;99.90;;;;;;5080086;28;20509;-83
2022/09/13 00:46:38;;;;;;;17.17;12.98;;;18.10;99.90;;;;;;5114871;28;20040;-82
2022/09/13 00:49:34;;;;;;;21.27;14.65;;;17.90;99.90;;;;;;5096858;28;20525;-84
2022/09/13 00:52:04;;;;;;;21.70;14.18;;;17.40;99.90;;;;;;5096423;28;20100;-82
2022/09/13 00:54:39;;;;;;;19.92;14.93;;;17.70;99.90;;;;;;5096311;28;20048;-83
2022/09/13 00:57:06;;;;;;;23.55;16.23;;;17.80;99.90;;;;;;5079424;28;20072;-84
2022/09/13 00:59:44;;;;;;;25.45;17.45;;;17.90;99.90;;;;;;5096380;28;20047;-81
2022/09/13 01:02:10;;;;;;;24.90;18.60;;;17.90;99.90;;;;;;5078998;28;20086;-86
2022/09/13 01:04:36;;;;;;;30.40;19.08;;;;;;;;;;5096661;28;20048;-84
2022/09/13 01:07:07;;;;;;;24.67;18.63;;;17.80;99.90;;;;;;5096197;28;20130;-83
2022/09/13 01:09:36;;;;;;;29.35;20.38;;;17.80;99.90;;;;;;5096136;28;20040;-85
2022/09/13 01:12:09;;;;;;;28.77;20.25;;;17.90;99.90;;;;;;5096376;28;20422;-82
2022/09/13 01:14:35;;;;;;;25.08;18.85;;;17.70;99.90;;;;;;5079311;28;20403;-83
2022/09/13 01:17:01;;;;;;;26.20;18.05;;;;;;;;;;5096032;28;20079;-81
2022/09/13 01:19:27;;;;;;;22.10;16.60;;;17.40;99.90;;;;;;5096053;28;20054;-82
2022/09/13 01:22:11;;;;;;;21.25;16.05;;;17.80;99.90;;;;;;5114061;28;20032;-80
2022/09/13 01:25:10;;;;;;;22.50;15.82;;;17.70;99.90;;;;;;5079200;28;20134;-79
2022/09/13 01:28:00;;;;;;;22.00;16.20;;;17.80;99.90;;;;;;5096122;28;20109;-82
2022/09/13 01:30:59;;;;;;;22.17;15.40;;;18.00;99.90;;;;;;5095920;28;20079;-84
2022/09/13 01:33:38;;;;;;;20.23;15.10;;;17.80;99.90;;;;;;5078787;28;20047;-85
2022/09/13 01:36:04;;;;;;;22.73;15.45;;;;;;;;;;5078947;28;20403;-86
2022/09/13 01:38:30;;;;;;;18.13;13.50;;;;;;;;;;5095647;28;20128;-87
2022/09/13 01:40:56;;;;;;;21.23;13.55;;;;;;;;;;5078623;28;20046;-87
2022/09/13 01:43:50;;;;;;;18.20;13.80;;;17.80;99.90;;;;;;5078536;28;20231;-87
2022/09/13 01:46:21;;;;;;;19.25;14.48;;;17.80;99.90;;;;;;5095591;28;20056;-83
2022/09/13 01:48:59;;;;;;;17.27;13.40;;;17.80;99.90;;;;;;5078653;28;20526;-79
2022/09/13 01:51:42;;;;;;;20.13;14.57;;;17.80;99.90;;;;;;5095438;28;20042;-79
2022/09/13 01:54:16;;;;;;;17.90;13.55;;;17.90;99.90;;;;;;5095416;28;20058;-78
2022/09/13 01:56:52;;;;;;;16.15;13.25;;;17.90;99.90;;;;;;5095433;28;20445;-78
2022/09/13 01:59:36;;;;;;;14.43;12.45;;;17.60;99.90;;;;;;5078498;28;20093;-78
2022/09/13 02:02:14;;;;;;;20.20;14.02;;;17.70;99.90;;;;;;5095171;28;20052;-78
2022/09/13 02:04:50;;;;;;;17.50;12.82;;;17.80;99.90;;;;;;5095478;28;20055;-77
2022/09/13 02:07:25;;;;;;;19.00;12.35;;;18.00;99.90;;;;;;5078396;28;20039;-78
2022/09/13 02:09:57;;;;;;;14.02;11.27;;;17.70;99.90;;;;;;5095128;28;20059;-78
2022/09/13 02:12:27;;;;;;;15.98;13.32;;;17.70;99.90;;;;;;5094912;28;20040;-79
2022/09/13 02:15:15;;;;;;;15.93;11.95;;;17.90;99.90;;;;;;5093918;28;20113;-79
2022/09/13 02:17:46;;;;;;;18.73;12.27;;;17.60;99.90;;;;;;5078198;28;20031;-78
2022/09/13 02:20:27;;;;;;;15.65;11.77;;;17.70;99.90;;;;;;5094849;28;20043;-79
2022/09/13 02:22:57;;;;;;;16.35;11.25;;;17.80;99.90;;;;;;5095002;28;20040;-79
2022/09/13 02:25:25;;;;;;;16.73;12.00;;;17.80;99.90;;;;;;5095064;28;20066;-79
2022/09/13 02:27:57;;;;;;;15.00;11.50;;;17.80;99.90;;;;;;5094867;28;20517;-79
2022/09/13 02:30:23;;;;;;;18.77;10.65;;;18.10;99.90;;;;;;5113017;28;20499;-79
2022/09/13 02:32:58;;;;;;;17.13;11.52;;;17.60;99.90;;;;;;5094520;28;20050;-78
2022/09/13 02:35:31;;;;;;;15.55;10.60;;;18.00;99.90;;;;;;5094687;28;20043;-79
2022/09/13 02:38:04;;;;;;;14.63;11.65;;;17.70;99.90;;;;;;5094632;28;20042;-78
2022/09/13 02:40:45;;;;;;;10.98;9.57;;;17.80;99.90;;;;;;5077845;28;20047;-78
2022/09/13 02:43:19;;;;;;;14.40;10.70;;;17.80;99.90;;;;;;5077622;28;20094;-79
2022/09/13 02:46:12;;;;;;;17.02;11.57;;;17.90;99.90;;;;;;5094417;28;20043;-79
2022/09/13 02:49:06;;;;;;;13.43;11.07;;;18.00;99.90;;;;;;5030033;28;20061;-79
2022/09/13 02:52:02;;;;;;;8.00;6.73;;;17.90;99.90;;;;;;5029985;28;20077;-79
2022/09/13 02:54:41;;;;;;;5.82;4.18;;;17.80;99.90;;;;;;4996974;28;20053;-78
2022/09/13 02:57:10;;;;;;;5.13;2.63;;;17.80;99.90;;;;;;4980715;28;20049;-86
2022/09/13 02:59:36;;;;;;;2.63;2.38;;;;;;;;;;4997118;28;20080;-84
2022/09/13 03:02:09;;;;;;;2.80;2.55;;;17.70;99.90;;;;;;5013309;28;20431;-86
2022/09/13 03:04:35;;;;;;;2.15;2.05;;;17.70;99.90;;;;;;5013398;28;20053;-86
2022/09/13 03:07:05;;;;;;;3.33;1.90;;;17.70;99.90;;;;;;5013287;28;20050;-86
2022/09/13 03:09:32;;;;;;;3.50;1.48;;;17.50;99.90;;;;;;4996994;28;20088;-86
2022/09/13 03:12:03;;;;;;;0.88;0.88;;;17.60;99.90;;;;;;4997062;28;20493;-85
2022/09/13 03:14:48;;;;;;;2.90;1.10;;;17.20;99.90;;;;;;5012954;28;20053;-86
2022/09/13 03:17:22;;;;;;;1.90;1.25;;;17.60;99.90;;;;;;5049451;28;20095;-85
2022/09/13 03:20:05;;;;;;;3.38;1.10;;;17.60;99.90;;;;;;5049479;28;20437;-86
2022/09/13 03:22:55;;;;;;;2.75;1.30;;;17.60;99.90;;;;;;5016336;28;20113;-85
2022/09/13 03:25:30;;;;;;;3.53;1.25;;;17.50;99.90;;;;;;5048389;28;20584;-76
2022/09/13 03:28:12;;;;;;;1.50;1.20;;;17.40;99.90;;;;;;5073549;28;20054;-84
2022/09/13 03:30:43;;;;;;;4.13;1.50;;;17.60;99.90;;;;;;5073736;28;20048;-86
2022/09/13 03:33:27;;;;;;;3.50;1.25;;;17.50;99.90;;;;;;5091828;28;20052;-83
2022/09/13 03:36:13;;;;;;;5.80;1.70;;;17.70;99.90;;;;;;5073953;28;20485;-77
2022/09/13 03:38:46;;;;;;;3.05;1.20;;;17.20;99.90;;;;;;5092117;28;20048;-78
2022/09/13 03:41:19;;;;;;;2.88;1.20;;;17.60;99.90;;;;;;5073892;28;20165;-78
2022/09/13 03:43:54;;;;;;;;;;;17.40;99.90;;;;;;5090800;28;20408;-78
2022/09/13 03:46:32;;;;;;;;;;;17.50;99.90;;;;;;5074270;28;20006;-79
2022/09/13 03:49:07;;;;;;;3.17;1.63;;;17.50;99.90;;;;;;5073635;28;19927;-79
2022/09/13 03:51:34;;;;;;;2.55;1.17;;;17.60;99.90;;;;;;5056827;28;20048;-78
2022/09/13 03:54:03;;;;;;;2.00;1.25;;;17.40;99.90;;;;;;5073251;28;20040;-78
2022/09/13 03:56:29;;;;;;;1.92;1.15;;;17.70;99.90;;;;;;5056959;28;20044;-78
2022/09/13 03:58:54;;;;;;;3.00;1.48;;;17.50;99.90;;;;;;5091677;28;20484;-78
2022/09/13 04:01:23;;;;;;;4.90;1.20;;;17.10;99.90;;;;;;5073382;28;20411;-77
2022/09/13 04:03:49;;;;;;;3.60;1.50;;;17.30;99.90;;;;;;5073429;28;20044;-78
2022/09/13 04:06:15;;;;;;;3.58;2.55;;;;;;;;;;5091586;28;20455;-78
2022/09/13 04:08:41;;;;;;;1.50;1.40;;;;;;;;;;5090390;28;20130;-79
2022/09/13 04:11:08;;;;;;;1.45;1.33;;;;;;;;;;5056793;28;20082;-78
2022/09/13 04:13:35;;;;;;;4.25;1.40;;;17.40;99.90;;;;;;5103780;28;20078;-79
2022/09/13 04:16:02;;;;;;;3.90;1.70;;;17.50;99.90;;;;;;5076959;28;20868;-79
2022/09/13 04:18:28;;;;;;;8.77;1.95;;;;;;;;;;5111467;28;20043;-79
2022/09/13 04:20:56;;;;;;;2.95;1.40;;;17.50;99.90;;;;;;5093729;28;20097;-78
2022/09/13 04:23:22;;;;;;;2.15;1.52;;;;;;;;;;5076855;28;20561;-79
2022/09/13 04:25:49;;;;;;;2.72;1.65;;;;;;;;;;5093639;28;20059;-77
2022/09/13 04:28:16;;;;;;;3.13;1.77;;;17.30;99.90;;;;;;5092921;28;20082;-78
2022/09/13 04:30:45;;;;;;;3.15;1.83;;;17.60;99.90;;;;;;5111367;28;20043;-79
2022/09/13 04:33:11;;;;;;;2.42;1.45;;;17.50;99.90;;;;;;5111612;28;20044;-78
2022/09/13 04:35:38;;;;;;;7.38;1.50;;;17.40;99.90;;;;;;5093594;28;20039;-79
2022/09/13 04:38:05;;;;;;;1.63;1.48;;;17.50;99.90;;;;;;5114056;28;20051;-79
2022/09/13 04:40:31;;;;;;;5.13;1.95;;;;;;;;;;5096912;28;20630;-79
2022/09/13 04:42:57;;;;;;;4.40;1.95;;;;;;;;;;5096918;28;20043;-79
2022/09/13 04:45:23;;;;;;;4.15;1.67;;;;;;;;;;5097239;28;20039;-79
2022/09/13 04:47:53;;;;;;;3.17;2.03;;;17.50;99.90;;;;;;5096554;28;20040;-79
2022/09/13 04:50:23;;;;;;;11.05;2.55;;;17.50;99.90;;;;;;5097281;28;20054;-87
2022/09/13 04:52:49;;;;;;;2.22;1.80;;;17.70;99.90;;;;;;5079870;28;20036;-81
2022/09/13 04:55:15;;;;;;;4.13;1.90;;;17.40;99.90;;;;;;5097293;28;20046;-86
2022/09/13 04:57:41;;;;;;;6.97;2.25;;;;;;;;;;5080669;28;20123;-77
2022/09/13 05:00:08;;;;;;;2.53;1.85;;;17.50;99.90;;;;;;5097677;28;20044;-87
2022/09/13 05:02:34;;;;;;;5.13;1.90;;;17.30;99.90;;;;;;5080611;28;20050;-86
2022/09/13 05:05:00;;;;;;;5.22;2.22;;;17.50;99.90;;;;;;5097070;28;20051;-86
2022/09/13 05:07:26;;;;;;;10.70;2.05;;;;;;;;;;5096663;28;20052;-86
2022/09/13 05:09:52;;;;;;;6.25;2.25;;;;;;;;;;5097210;28;20043;-84
2022/09/13 05:12:18;;;;;;;4.38;2.00;;;;;;;;;;5097068;28;20048;-83
2022/09/13 05:14:44;;;;;;;3.70;1.77;;;17.30;99.90;;;;;;5097133;28;20047;-82
2022/09/13 05:17:10;;;;;;;2.67;1.77;;;;;;;;;;5096943;28;20457;-85
2022/09/13 05:19:36;;;;;;;5.13;1.83;;;17.30;99.90;;;;;;5080478;28;20047;-83
2022/09/13 05:22:02;;;;;;;2.85;2.03;;;17.30;99.90;;;;;;5080908;28;20040;-85
2022/09/13 05:24:27;;;;;;;4.93;2.70;;;17.30;99.90;;;;;;5095845;28;20051;-78
2022/09/13 05:26:53;;;;;;;4.47;3.13;;;17.40;99.90;;;;;;5079371;28;20044;-78
2022/09/13 05:29:19;;;;;;;9.00;2.40;;;17.30;99.90;;;;;;5078903;28;20530;-77
2022/09/13 05:31:45;;;;;;;3.92;2.53;;;17.30;99.90;;;;;;5096028;28;20048;-78
2022/09/13 05:34:14;;;;;;;7.25;2.60;;;17.40;99.90;;;;;;5095739;28;20116;-78
2022/09/13 05:36:40;;;;;;;4.22;3.05;;;17.10;99.90;;;;;;5095614;28;20079;-78
2022/09/13 05:39:11;;;;;;;5.68;2.92;;;17.30;99.90;;;;;;5079205;28;20048;-78
2022/09/13 05:41:36;;;;;;;6.68;2.17;;;17.60;99.90;;;;;;5078638;28;20040;-78
2022/09/13 05:44:02;;;;;;;2.58;2.30;;;17.00;99.90;;;;;;5078881;28;20112;-79
2022/09/13 05:46:28;;;;;;;5.55;2.42;;;16.80;99.90;;;;;;5078523;28;20032;-79
2022/09/13 05:48:57;;;;;;;5.53;2.22;;;17.20;99.90;;;;;;5095682;28;20454;-78
2022/09/13 05:51:23;;;;;;;3.25;1.98;;;17.30;99.90;;;;;;5095462;28;20047;-78
2022/09/13 05:53:51;;;;;;;4.43;2.40;;;17.00;99.90;;;;;;5113647;28;20048;-78
2022/09/13 05:56:21;;;;;;;9.10;2.47;;;17.40;99.90;;;;;;5095753;28;20043;-78
2022/09/13 05:58:48;;;;;;;6.93;3.05;;;17.40;99.90;;;;;;5095704;28;20090;-79
2022/09/13 06:01:16;;;;;;;8.50;2.80;;;17.40;99.90;;;;;;5095088;28;20043;-78
2022/09/13 06:03:42;;;;;;;6.65;3.03;;;;;;;;;;5095393;28;20131;-78
2022/09/13 06:06:10;;;;;;;6.88;2.35;;;17.50;99.90;;;;;;5095483;28;20480;-78
2022/09/13 06:08:36;;;;;;;16.38;2.63;;;;;;;;;;5078118;28;20048;-79
2022/09/13 06:11:07;;;;;;;4.38;2.15;;;17.10;99.90;;;;;;5095149;28;20092;-77
2022/09/13 06:13:34;;;;;;;3.63;3.22;;;;;;;;;;5094855;28;20449;-78
2022/09/13 06:16:01;;;;;;;5.88;2.30;;;17.20;99.90;;;;;;5094749;28;20055;-78
2022/09/13 06:18:28;;;;;;;2.67;2.05;;;;;;;;;;5094974;28;20507;-78
2022/09/13 06:20:59;;;;;;;5.15;2.13;;;17.40;99.90;;;;;;5095012;28;20499;-78
2022/09/13 06:23:25;;;;;;;6.65;2.25;;;;;;;;;;5112904;28;20120;-78
2022/09/13 06:26:02;;;;;;;7.32;2.40;;;17.30;99.90;;;;;;5078680;28;20035;-78
2022/09/13 06:28:28;;;;;;;6.47;2.08;;;;;;;;;;5094472;28;20491;-78
2022/09/13 06:31:11;;;;;;;3.80;2.03;;;17.20;99.90;;;;;;5077871;28;20092;-77
2022/09/13 06:33:39;;;;;;;5.57;3.27;;;17.50;99.90;;;;;;5094882;28;20476;-78
2022/09/13 06:36:13;;;;;;;9.15;2.65;;;17.60;99.90;;;;;;5077832;28;20289;-86
2022/09/13 06:38:39;;;;;;;9.38;2.53;;;17.60;99.90;;;;;;5077836;28;20043;-87
2022/09/13 06:41:08;;;;;;;5.30;2.33;;;17.50;99.90;;;;;;5094784;28;20047;-85
2022/09/13 06:43:35;;;;;;;3.28;2.00;;;17.60;99.90;;;;;;5112947;28;20038;-87
2022/09/13 06:46:03;;;;;;;8.95;2.13;;;17.50;99.90;;;;;;5094287;28;20043;-86
2022/09/13 06:48:34;;;;;;;5.72;2.63;;;17.70;99.90;;;;;;5094448;28;20078;-87
2022/09/13 06:51:01;;;;;;;4.50;2.08;;;17.60;99.90;;;;;;5097350;28;20043;-86
2022/09/13 06:53:28;;;;;;;7.13;3.00;;;17.40;99.90;;;;;;5099558;28;20047;-88
2022/09/13 06:56:02;;;;;;;18.63;3.22;;;17.60;99.90;;;;;;5100323;28;20043;-87
2022/09/13 06:58:30;;;;;;;5.47;2.45;;;17.60;99.90;;;;;;5080941;28;20454;-84
2022/09/13 07:01:11;;;;;;;8.32;2.15;;;17.60;99.90;;;;;;5096430;28;20040;-88
2022/09/13 07:03:44;;;;;;;18.65;4.10;;;17.70;99.90;;;;;;5099827;28;20052;-84
2022/09/13 07:06:28;;;;;;;8.40;1.90;;;17.80;99.90;;;;;;5096729;28;20040;-87
2022/09/13 07:08:54;;;;;;;8.73;2.70;;;;;;;;;;5094299;28;20128;-83
2022/09/13 07:11:24;;;;;;;2.38;1.48;;;17.70;99.90;;;;;;5094590;28;20467;-82
2022/09/13 07:13:51;;;;;;;4.90;1.45;;;17.40;99.90;;;;;;5077111;28;20056;-82
2022/09/13 07:16:18;;;;;;;4.53;1.48;;;17.70;99.90;;;;;;5094386;28;20114;-83
2022/09/13 07:18:45;;;;;;;2.17;1.50;;;;;;;;;;5094569;28;20039;-79
2022/09/13 07:21:11;;;;;;;5.15;1.67;;;;;;;;;;5094479;28;20040;-80
2022/09/13 07:23:38;;;;;;;4.45;1.42;;;17.70;99.90;;;;;;5077206;28;20047;-81
2022/09/13 07:26:06;;;;;;;3.92;1.40;;;17.60;99.90;;;;;;5093868;28;20081;-81
2022/09/13 07:28:35;;;;;;;8.07;2.45;;;17.60;99.90;;;;;;5094130;28;20074;-81
2022/09/13 07:31:09;;;;;;;6.32;1.80;;;17.70;99.90;;;;;;5093656;28;20091;-82
2022/09/13 07:33:36;;;;;;;2.65;1.00;;;;;;;;;;5093623;28;20055;-80
2022/09/13 07:36:05;;;;;;;7.03;1.38;;;17.50;99.90;;;;;;5093686;28;20048;-80
2022/09/13 07:38:32;;;;;;;2.55;1.35;;;17.90;99.90;;;;;;5093682;28;20062;-81
2022/09/13 07:40:58;;;;;;;5.65;1.20;;;;;;;;;;5076969;28;20132;-81
2022/09/13 07:43:28;;;;;;;3.95;1.10;;;17.70;99.90;;;;;;5077130;28;20357;-80
2022/09/13 07:46:01;;;;;;;12.40;1.65;;;17.70;99.90;;;;;;5093563;28;20077;-84
2022/09/13 07:48:29;;;;;;;1.58;1.15;;;17.70;99.90;;;;;;5093703;28;20039;-85
2022/09/13 07:51:10;;;;;;;3.08;1.95;;;17.90;99.90;;;;;;5094009;28;20051;-82
2022/09/13 07:53:37;;;;;;;8.18;2.20;;;17.80;99.90;;;;;;5093477;28;20047;-83
2022/09/13 07:56:15;;;;;;;6.10;1.42;;;17.80;99.90;;;;;;5111835;28;20484;-87
2022/09/13 07:58:43;;;;;;;3.88;1.40;;;18.00;99.90;;;;;;5094053;28;20096;-80
2022/09/13 08:01:23;;;;;;;6.82;1.90;;;17.70;99.90;;;;;;5093602;28;20048;-88
2022/09/13 08:03:54;;;;;;;5.88;1.30;;;18.10;99.90;;;;;;5077957;28;20074;-87
2022/09/13 08:06:20;;;;;;;10.40;2.05;;;;;;;;;;5093447;28;20052;-89
2022/09/13 08:08:46;;;;;;;5.53;1.60;;;;;;;;;;5111720;28;20066;-88
2022/09/13 08:11:28;;;;;;;3.08;2.15;;;18.00;99.90;;;;;;5093608;28;20399;-87
2022/09/13 08:13:54;;;;;;;3.45;1.77;;;;;;;;;;5097103;28;20105;-89
2022/09/13 08:16:22;;;;;;;4.38;1.83;;;17.80;99.90;;;;;;5115626;28;20107;-87
2022/09/13 08:18:50;;;;;;;8.75;1.90;;;18.00;99.90;;;;;;5116091;28;20055;-88
2022/09/13 08:21:16;;;;;;;5.32;1.65;;;;;;;;;;5097239;28;20047;-88
2022/09/13 08:23:42;;;;;;;10.35;1.65;;;;;;;;;;5080102;28;20043;-87
2022/09/13 08:26:09;;;;;;;8.38;1.48;;;;;;;;;;5097158;28;20039;-88
2022/09/13 08:28:37;;;;;;;10.00;3.10;;;18.20;99.90;;;;;;5097385;28;20083;-87
2022/09/13 08:31:08;;;;;;;10.80;3.33;;;18.10;99.90;;;;;;5097036;28;20031;-88
2022/09/13 08:33:34;;;;;;;3.78;1.38;;;;;;;;;;5096781;28;20048;-79
2022/09/13 08:36:00;;;;;;;13.25;3.53;;;18.40;99.90;;;;;;5097088;28;20048;-79
2022/09/13 08:38:27;;;;;;;13.18;1.60;;;;;;;;;;5096824;28;20044;-79
2022/09/13 08:40:56;;;;;;;9.43;1.23;;;18.30;99.90;;;;;;5096496;28;20043;-79
2022/09/13 08:43:34;;;;;;;2.35;1.10;;;18.30;99.90;;;;;;5096741;28;20047;-80
2022/09/13 08:46:00;;;;;;;4.07;1.17;;;;;;;;;;5115130;28;20174;-79
2022/09/13 08:48:40;;;;;;;6.28;1.50;;;18.50;99.90;;;;;;5114972;28;20040;-79
2022/09/13 08:51:11;;;;;;;1.45;0.88;;;18.50;99.90;;;;;;5079589;28;20059;-79
2022/09/13 08:53:44;;;;;;;3.03;0.90;;;18.70;99.90;;;;;;5114993;28;20046;-79
2022/09/13 08:56:17;;;;;;;6.60;1.20;;;18.50;99.90;;;;;;5114820;28;20400;-79
2022/09/13 08:59:01;;;;;;;7.75;1.55;;;18.60;99.90;;;;;;5079828;28;20492;-80
2022/09/13 09:01:27;;;;;;;10.57;1.65;;;;;;;;;;5079626;28;20518;-79
2022/09/13 09:04:10;;;;;;;4.40;1.73;;;18.80;99.90;;;;;;5096646;28;20445;-80
2022/09/13 09:06:36;;;;;;;6.20;1.77;;;18.90;99.90;;;;;;5079107;28;20055;-79
2022/09/13 09:09:06;;;;;;;5.63;1.50;;;18.70;99.90;;;;;;5096294;28;20055;-80
2022/09/13 09:11:59;;;;;;;5.05;1.13;;;18.90;99.90;;;;;;5096463;28;20077;-78
2022/09/13 09:14:57;;;;;;;8.90;1.30;;;18.80;99.90;;;;;;5114187;28;20047;-79
2022/09/13 09:17:29;;;;;;;6.72;0.93;;;19.00;99.90;;;;;;5096211;28;20508;-79
2022/09/13 09:20:15;;;;;;;2.45;1.20;;;18.90;99.90;;;;;;5095922;28;20412;-79
2022/09/13 09:22:41;;;;;;;9.43;1.45;;;18.90;99.90;;;;;;5095792;28;20044;-83
2022/09/13 09:25:10;;;;;;;5.63;1.42;;;19.10;99.90;;;;;;5079270;28;20077;-88
2022/09/13 09:27:36;;;;;;;5.28;1.45;;;18.70;99.90;;;;;;5096267;28;20062;-88
2022/09/13 09:30:02;;;;;;;4.00;1.20;;;19.10;99.90;;;;;;5078905;28;20484;-88
2022/09/13 09:32:56;;;;;;;2.30;0.85;;;19.30;99.90;;;;;;5095515;28;20047;-87
2022/09/13 09:36:18;;;;;;;6.97;1.20;;;19.00;99.90;;;;;;5078759;28;20058;-87
2022/09/13 09:38:44;;;;;;;2.78;1.10;;;19.20;99.90;;;;;;4995441;28;20141;-86
2022/09/13 09:41:26;;;;;;;2.65;1.30;;;19.10;99.90;;;;;;4995341;28;20557;-88
2022/09/13 09:43:55;;;;;;;5.57;1.60;;;19.20;99.90;;;;;;4995182;28;20110;-87
2022/09/13 09:46:28;;;;;;;6.32;2.00;;;19.10;99.90;;;;;;4978984;28;20126;-89
2022/09/13 09:49:01;;;;;;;4.82;1.25;;;18.80;99.90;;;;;;4978574;28;20038;-85
2022/09/13 09:51:27;;;;;;;5.95;1.98;;;19.20;99.90;;;;;;4978562;28;20041;-88
2022/09/13 09:54:04;;;;;;;8.30;2.42;;;19.00;99.90;;;;;;5011087;28;20046;-87
2022/09/13 09:56:32;;;;;;;6.65;2.60;;;19.10;99.90;;;;;;4994743;28;20116;-89
2022/09/13 09:59:02;;;;;;;6.68;1.67;;;19.10;99.90;;;;;;4978946;28;20116;-88
2022/09/13 10:01:31;;;;;;;8.93;1.67;;;19.20;99.90;;;;;;4994507;28;20049;-82
2022/09/13 10:04:17;;;;;;;6.47;2.22;;;19.00;99.90;;;;;;4994760;28;20212;-82
2022/09/13 10:06:45;;;;;;;5.95;1.33;;;;;;;;;;4978132;28;20141;-81
2022/09/13 10:09:15;;;;;;;9.73;1.65;;;19.30;99.90;;;;;;5045320;28;20063;-83
2022/09/13 10:11:49;;;;;;;5.93;1.58;;;19.20;99.90;;;;;;5094934;28;20089;-79
2022/09/13 10:14:28;;;;;;;9.13;1.40;;;19.30;99.90;;;;;;5094758;28;20056;-82
2022/09/13 10:17:23;;;;;;;5.72;1.23;;;19.50;99.90;;;;;;5094841;28;20134;-82
2022/09/13 10:19:58;;;;;;;7.68;1.20;;;19.50;99.90;;;;;;5112958;28;20526;-81
2022/09/13 10:22:24;;;;;;;3.78;1.63;;;;;;;;;;5113189;28;20039;-82
2022/09/13 10:24:51;;;;;;;4.47;1.33;;;19.40;99.90;;;;;;5112870;28;20407;-83
2022/09/13 10:27:32;;;;;;;3.03;1.02;;;19.70;99.90;;;;;;5094714;28;20040;-83
2022/09/13 10:30:00;;;;;;;7.97;1.25;;;19.50;99.90;;;;;;5112782;28;20100;-85
2022/09/13 10:32:28;;;;;;;4.13;1.00;;;19.70;99.90;;;;;;5112899;28;20040;-84
2022/09/13 10:34:55;;;;;;;4.43;1.20;;;19.50;99.90;;;;;;5111840;28;20043;-84
2022/09/13 10:37:32;;;;;;;5.13;1.00;;;19.70;99.90;;;;;;5094620;28;20056;-87
2022/09/13 10:40:08;;;;;;;3.67;1.70;;;19.90;99.90;;;;;;5077523;28;20040;-85
2022/09/13 10:42:35;;;;;;;7.05;1.23;;;19.90;99.90;;;;;;5094279;28;20038;-87
2022/09/13 10:45:06;;;;;;;2.47;1.33;;;19.60;99.90;;;;;;5094493;28;20035;-86
2022/09/13 10:47:38;;;;;;;3.85;1.58;;;19.80;99.90;;;;;;5112821;28;20064;-86
2022/09/13 10:50:20;;;;;;;7.30;2.00;;;19.80;99.90;;;;;;5094361;28;20102;-88
2022/09/13 10:52:53;;;;;;;6.90;1.63;;;19.60;99.90;;;;;;5112428;28;20612;-87
2022/09/13 10:55:19;;;;;;;3.80;1.48;;;;;;;;;;5112833;28;20135;-87
2022/09/13 10:57:46;;;;;;;4.03;1.30;;;;;;;;;;5112710;28;20040;-84
2022/09/13 11:00:15;;;;;;;5.25;1.25;;;19.90;99.90;;;;;;5094033;28;20040;-84
2022/09/13 11:03:08;;;;;;;2.50;0.80;;;20.00;99.90;;;;;;5094288;28;20055;-88
2022/09/13 11:06:04;;;;;;;4.47;1.65;;;19.60;99.90;;;;;;5112152;28;20070;-85
2022/09/13 11:08:38;;;;;;;3.97;1.20;;;20.20;99.90;;;;;;5094095;28;20043;-86
2022/09/13 11:11:35;;;;;;;8.48;1.95;;;20.10;99.90;;;;;;5094094;28;20495;-89
2022/09/13 11:14:13;;;;;;;5.93;1.77;;;20.00;99.90;;;;;;5093829;28;20532;-88
2022/09/13 11:17:02;;;;;;;6.28;1.90;;;20.00;99.90;;;;;;5077405;28;20056;-86
2022/09/13 11:19:46;;;;;;;5.65;1.17;;;19.90;99.90;;;;;;5077203;28;20039;-87
2022/09/13 11:22:36;;;;;;;12.07;2.95;;;19.70;99.90;;;;;;5094323;28;20135;-84
2022/09/13 11:25:13;;;;;;;8.05;1.73;;;19.90;99.90;;;;;;5077155;28;20054;-88
2022/09/13 11:28:04;;;;;;;10.75;1.55;;;19.70;99.90;;;;;;5077224;28;20108;-88
2022/09/13 11:30:40;;;;;;;9.10;1.80;;;19.90;99.90;;;;;;5076773;28;20040;-88
2022/09/13 11:33:09;;;;;;;11.85;2.08;;;19.70;99.90;;;;;;5093751;28;20090;-87
2022/09/13 11:35:53;;;;;;;5.72;1.25;;;20.00;99.90;;;;;;5093889;28;20448;-79
2022/09/13 11:38:57;;;;;;;7.30;1.13;;;19.90;99.90;;;;;;5076895;28;20043;-79
2022/09/13 11:41:37;;;;;;;2.25;1.15;;;20.00;99.90;;;;;;5093548;28;20035;-79
2022/09/13 11:44:31;;;;;;;12.30;2.13;;;20.10;99.90;;;;;;5093601;28;20051;-79
2022/09/13 11:47:05;;;;;;;7.05;1.92;;;20.10;99.90;;;;;;5079721;28;20548;-79
2022/09/13 11:50:08;;;;;;;7.72;2.38;;;20.00;99.90;;;;;;5080667;28;20047;-79
2022/09/13 11:52:37;;;;;;;8.00;2.30;;;20.20;99.90;;;;;;5081048;28;20369;-79
2022/09/13 11:55:03;;;;;;;8.75;1.70;;;20.10;99.90;;;;;;5097639;28;20127;-79
2022/09/13 11:57:39;;;;;;;4.80;1.20;;;20.20;99.90;;;;;;5080742;28;20456;-80
2022/09/13 12:00:48;;;;;;;13.50;2.20;;;20.00;99.90;;;;;;5115657;28;20126;-79
2022/09/13 12:03:41;;;;;;;7.57;2.00;;;20.50;99.90;;;;;;5116065;28;20049;-79
2022/09/13 12:06:22;;;;;;;3.60;2.05;;;20.50;99.90;;;;;;5013286;28;20123;-79
2022/09/13 12:08:55;;;;;;;3.90;1.58;;;20.40;99.90;;;;;;4996881;28;20042;-79
2022/09/13 12:11:27;;;;;;;12.85;2.50;;;20.30;99.90;;;;;;4996636;28;20073;-79
2022/09/13 12:13:57;;;;;;;5.07;1.65;;;20.40;99.90;;;;;;5000161;28;20537;-79
2022/09/13 12:16:49;;;;;;;7.25;1.80;;;20.40;99.90;;;;;;4977405;28;20493;-79
2022/09/13 12:19:42;;;;;;;4.70;1.98;;;20.40;99.90;;;;;;4993246;28;20051;-79
2022/09/13 12:22:09;;;;;;;7.20;1.67;;;20.50;99.90;;;;;;4961323;28;20050;-79
2022/09/13 12:24:45;;;;;;;6.30;1.98;;;20.70;99.90;;;;;;4993202;28;20066;-78
2022/09/13 12:27:38;;;;;;;6.15;1.50;;;20.30;99.90;;;;;;4976963;28;20050;-77
2022/09/13 12:30:20;;;;;;;11.38;1.63;;;20.60;99.90;;;;;;4993192;28;20051;-79
2022/09/13 12:32:47;;;;;;;6.90;1.75;;;20.10;99.90;;;;;;4961012;28;20671;-79
2022/09/13 12:35:31;;;;;;;5.00;1.38;;;20.50;99.90;;;;;;4976790;28;20054;-79
2022/09/13 12:38:48;;;;;;;9.68;1.45;;;20.50;99.90;;;;;;4960484;28;20050;-79
2022/09/13 12:41:39;;;;;;;4.95;1.50;;;20.30;99.90;;;;;;4915957;29;20056;-81
2022/09/13 12:44:04;;;;;;;6.80;1.63;;;20.40;99.90;;;;;;4956065;28;20054;-83
2022/09/13 12:46:56;;;;;;;5.20;1.48;;;20.10;99.90;;;;;;4976912;28;20053;-82
2022/09/13 12:49:31;;;;;;;5.70;1.73;;;20.50;99.90;;;;;;4960862;28;20111;-84
2022/09/13 12:51:57;;;;;;;5.18;1.45;;;;;;;;;;4960290;28;20065;-85
2022/09/13 12:54:54;;;;;;;7.32;1.88;;;20.50;99.90;;;;;;4960185;28;20144;-82
2022/09/13 12:57:20;;;;;;;7.80;2.08;;;;;;;;;;4975674;28;20172;-81
2022/09/13 12:59:57;;;;;;;5.78;1.83;;;19.80;99.90;;;;;;4976216;28;20047;-81
2022/09/13 13:02:39;;;;;;;8.77;1.75;;;19.70;99.90;;;;;;4960298;28;20050;-82
2022/09/13 13:05:20;;;;;;;6.30;1.30;;;19.90;99.90;;;;;;4960402;28;20062;-80
2022/09/13 13:07:53;;;;;;;12.45;2.55;;;19.90;99.90;;;;;;4992377;28;20046;-81
2022/09/13 13:10:34;;;;;;;3.85;1.55;;;19.50;99.90;;;;;;4976473;28;20046;-82
2022/09/13 13:13:29;;;;;;;6.78;1.45;;;19.60;99.90;;;;;;4981178;28;20560;-81
2022/09/13 13:15:58;;;;;;;6.10;1.88;;;19.80;99.90;;;;;;4979438;28;20141;-82
2022/09/13 13:18:24;;;;;;;12.15;3.13;;;;;;;;;;5093588;28;20058;-80
2022/09/13 13:20:53;;;;;;;5.30;1.35;;;20.10;99.90;;;;;;5079130;28;20119;-79
2022/09/13 13:23:35;;;;;;;3.97;1.90;;;20.10;99.90;;;;;;5079299;28;20555;-79
2022/09/13 13:26:01;;;;;;;4.78;1.50;;;20.20;99.90;;;;;;5096113;28;20043;-78
2022/09/13 13:28:49;;;;;;;5.68;1.33;;;20.10;99.90;;;;;;5095899;28;20047;-76
2022/09/13 13:31:22;;;;;;;7.05;1.45;;;20.10;99.90;;;;;;5079378;28;20047;-78
2022/09/13 13:34:03;;;;;;;4.35;1.25;;;20.20;99.90;;;;;;5078969;28;20485;-78